Time;durP1;ratioP1;P1;durP2;ratioP2;P2;SDS_P1;SDS_P2;PMS_P1;PMS_P2;Temp;Humidity;BMP_temperature;BMP_pressure;BME280_temperature;BME280_humidity;BME280_pressure;Samples;Min_cycle;Max_cycle;Signal;HPM_P1;HPM_P2
2022/06/02 00:00:26;;;;;;;3.53;3.22;;;10.90;99.90;;;;;;5116608;28;20503;-59
2022/06/02 00:03:04;;;;;;;5.00;3.80;;;11.00;99.90;;;;;;5116830;28;20307;-60
2022/06/02 00:05:50;;;;;;;4.03;3.63;;;11.00;99.90;;;;;;5116421;28;20262;-59
2022/06/02 00:08:28;;;;;;;3.83;3.45;;;10.90;99.90;;;;;;5116663;28;20649;-60
2022/06/02 00:11:16;;;;;;;4.60;3.85;;;10.90;99.90;;;;;;5116483;28;20660;-59
2022/06/02 00:14:06;;;;;;;4.32;3.80;;;10.90;99.90;;;;;;5116441;28;20615;-59
2022/06/02 00:16:52;;;;;;;4.05;3.65;;;10.80;99.90;;;;;;5116520;28;20197;-59
2022/06/02 00:19:39;;;;;;;4.32;3.92;;;10.70;99.90;;;;;;5116580;28;20261;-58
2022/06/02 00:22:11;;;;;;;5.10;4.07;;;10.70;99.90;;;;;;5116312;28;20185;-59
2022/06/02 00:24:53;;;;;;;4.18;3.78;;;10.60;99.90;;;;;;5116110;28;20181;-58
2022/06/02 00:27:45;;;;;;;4.10;3.70;;;10.60;99.90;;;;;;5116265;28;20272;-59
2022/06/02 00:30:19;;;;;;;4.65;4.25;;;10.70;99.90;;;;;;5116152;28;20177;-58
2022/06/02 00:33:04;;;;;;;4.60;3.90;;;10.70;99.90;;;;;;5115179;28;20201;-58
2022/06/02 00:35:42;;;;;;;4.38;3.78;;;10.70;99.90;;;;;;5115774;28;20654;-59
2022/06/02 00:38:18;;;;;;;4.35;3.95;;;10.70;99.90;;;;;;5116202;28;20180;-59
2022/06/02 00:40:45;;;;;;;4.45;4.05;;;10.50;99.90;;;;;;5115907;28;20177;-58
2022/06/02 00:43:28;;;;;;;5.43;3.97;;;10.50;99.90;;;;;;5115832;28;20181;-59
2022/06/02 00:45:59;;;;;;;4.60;4.07;;;10.50;99.90;;;;;;5115997;28;20564;-59
2022/06/02 00:49:02;;;;;;;4.40;3.97;;;10.50;99.90;;;;;;5115847;28;20170;-59
2022/06/02 00:51:37;;;;;;;5.15;4.32;;;10.50;99.90;;;;;;5115635;28;20630;-60
2022/06/02 00:57:39;;;;;;;4.90;4.40;;;10.40;99.90;;;;;;5115893;28;20188;-59
2022/06/02 01:00:14;;;;;;;5.35;4.47;;;10.30;99.90;;;;;;5115397;28;20661;-59
2022/06/02 01:03:06;;;;;;;5.00;4.45;;;10.20;99.90;;;;;;5115508;28;20576;-59
2022/06/02 01:05:47;;;;;;;5.25;4.70;;;10.10;99.90;;;;;;5115279;28;20177;-59
2022/06/02 01:08:45;;;;;;;4.88;4.30;;;10.00;99.90;;;;;;5115376;28;20176;-58
2022/06/02 01:11:57;;;;;;;5.03;4.53;;;9.90;99.90;;;;;;5115441;28;20188;-58
2022/06/02 01:14:42;;;;;;;5.25;4.72;;;9.90;99.90;;;;;;5091512;28;20291;-58
2022/06/02 01:17:36;;;;;;;5.32;4.68;;;9.90;99.90;;;;;;5115458;28;20216;-58
2022/06/02 01:20:07;;;;;;;4.93;4.43;;;9.90;99.90;;;;;;5114757;28;20165;-58
2022/06/02 01:22:59;;;;;;;4.53;4.10;;;9.90;99.90;;;;;;5115059;28;20169;-58
2022/06/02 01:25:43;;;;;;;4.63;4.22;;;9.90;99.90;;;;;;5115269;28;20209;-59
2022/06/02 01:28:17;;;;;;;5.03;4.25;;;9.90;99.90;;;;;;5114962;28;20184;-59
2022/06/02 01:31:07;;;;;;;5.07;4.50;;;9.80;99.90;;;;;;5114907;28;20522;-58
2022/06/02 01:33:48;;;;;;;5.05;4.43;;;9.80;99.90;;;;;;5115056;28;20264;-59
2022/06/02 01:36:32;;;;;;;4.68;4.18;;;9.70;99.90;;;;;;5114784;28;20258;-59
2022/06/02 01:39:11;;;;;;;5.15;4.53;;;9.70;99.90;;;;;;5114824;28;20165;-58
2022/06/02 01:41:46;;;;;;;5.10;4.45;;;9.70;99.90;;;;;;5114768;28;20170;-58
2022/06/02 01:44:25;;;;;;;5.70;5.00;;;9.70;99.90;;;;;;5114483;28;20165;-58
2022/06/02 01:47:04;;;;;;;6.18;5.00;;;9.70;99.90;;;;;;5114737;28;20645;-58
2022/06/02 01:50:13;;;;;;;5.57;4.78;;;9.70;99.90;;;;;;5114730;28;20566;-59
2022/06/02 01:53:05;;;;;;;5.45;4.72;;;9.60;99.90;;;;;;5114498;28;20622;-58
2022/06/02 01:55:42;;;;;;;5.65;4.90;;;9.60;99.90;;;;;;5114628;28;20204;-58
2022/06/02 01:58:33;;;;;;;5.68;5.07;;;9.40;99.90;;;;;;5114406;28;20256;-59
2022/06/02 02:01:26;;;;;;;6.13;4.95;;;9.40;99.90;;;;;;5114727;28;20664;-58
2022/06/02 02:04:18;;;;;;;6.07;5.07;;;9.40;99.90;;;;;;5113922;28;20188;-60
2022/06/02 02:07:19;;;;;;;4.95;4.45;;;9.50;99.90;;;;;;5114312;28;20189;-58
2022/06/02 02:09:57;;;;;;;6.25;5.22;;;9.50;99.90;;;;;;5114420;28;20172;-58
2022/06/02 02:12:43;;;;;;;5.88;5.10;;;9.40;99.90;;;;;;5114219;28;20173;-58
2022/06/02 02:15:26;;;;;;;6.00;5.25;;;9.30;99.90;;;;;;5114038;28;20199;-58
2022/06/02 02:18:19;;;;;;;5.65;5.05;;;9.20;99.90;;;;;;5114121;28;20169;-59
2022/06/02 02:20:54;;;;;;;5.90;5.30;;;9.20;99.90;;;;;;5114192;28;20223;-58
2022/06/02 02:23:52;;;;;;;5.70;5.10;;;9.30;99.90;;;;;;5113945;28;20629;-58
2022/06/02 02:27:02;;;;;;;5.90;5.25;;;9.20;99.90;;;;;;5110861;28;20181;-58
2022/06/02 02:29:43;;;;;;;6.15;5.13;;;9.20;99.90;;;;;;5114006;28;20185;-59
2022/06/02 02:32:27;;;;;;;6.05;5.32;;;9.30;99.90;;;;;;5114429;28;20170;-58
2022/06/02 02:35:10;;;;;;;7.95;6.30;;;9.30;99.90;;;;;;5113810;28;20224;-59
2022/06/02 02:37:59;;;;;;;6.00;5.40;;;9.40;99.90;;;;;;5113784;28;20210;-58
2022/06/02 02:40:32;;;;;;;6.20;5.57;;;9.40;99.90;;;;;;5113982;28;20165;-58
2022/06/02 02:43:06;;;;;;;6.57;5.80;;;9.30;99.90;;;;;;5114221;28;20165;-58
2022/06/02 02:45:32;;;;;;;7.00;6.10;;;9.20;99.90;;;;;;5114094;28;20522;-58
2022/06/02 02:48:11;;;;;;;6.68;6.00;;;9.20;99.90;;;;;;5113629;28;20176;-59
2022/06/02 02:51:03;;;;;;;6.78;5.82;;;9.30;99.90;;;;;;5113750;28;20248;-58
2022/06/02 02:53:40;;;;;;;6.15;5.55;;;9.20;99.90;;;;;;5111633;28;20648;-59
2022/06/02 02:56:12;;;;;;;7.03;5.38;;;9.20;99.90;;;;;;5113648;28;20200;-59
2022/06/02 02:58:47;;;;;;;7.35;5.70;;;9.10;99.90;;;;;;5117893;28;20173;-58
2022/06/02 03:01:40;;;;;;;6.68;5.82;;;9.20;99.90;;;;;;5118240;28;20173;-58
2022/06/02 03:04:07;;;;;;;7.43;5.95;;;9.10;99.90;;;;;;5117800;28;20255;-58
2022/06/02 03:06:37;;;;;;;7.85;6.15;;;9.10;99.90;;;;;;5117921;28;20185;-58
2022/06/02 03:09:18;;;;;;;6.57;5.43;;;9.10;99.90;;;;;;5117738;28;20631;-58
2022/06/02 03:11:52;;;;;;;7.40;5.95;;;9.20;99.90;;;;;;5117900;28;20193;-58
2022/06/02 03:14:28;;;;;;;7.10;5.80;;;9.10;99.90;;;;;;5117578;28;20183;-58
2022/06/02 03:17:15;;;;;;;7.38;6.03;;;9.10;99.90;;;;;;5117648;28;20173;-59
2022/06/02 03:19:55;;;;;;;8.73;6.15;;;9.00;99.90;;;;;;5117421;28;20177;-59
2022/06/02 03:22:36;;;;;;;7.05;6.03;;;9.00;99.90;;;;;;5117578;28;20181;-58
2022/06/02 03:25:13;;;;;;;7.93;5.82;;;9.00;99.90;;;;;;5117351;28;20694;-58
2022/06/02 03:28:05;;;;;;;7.68;6.07;;;9.10;99.90;;;;;;5117316;28;20165;-58
2022/06/02 03:30:49;;;;;;;6.25;5.38;;;9.10;99.90;;;;;;5115399;28;20196;-58
2022/06/02 03:33:52;;;;;;;7.47;6.05;;;8.90;99.90;;;;;;5117329;28;20169;-58
2022/06/02 03:36:43;;;;;;;7.25;6.20;;;8.90;99.90;;;;;;5117167;28;20226;-59
2022/06/02 03:39:34;;;;;;;6.38;5.53;;;9.10;99.90;;;;;;5117065;28;20177;-58
2022/06/02 03:42:32;;;;;;;7.43;5.82;;;9.10;99.90;;;;;;5117324;28;20661;-58
2022/06/02 03:45:20;;;;;;;6.32;5.32;;;9.20;99.90;;;;;;5093336;28;20582;-58
2022/06/02 03:48:17;;;;;;;7.18;5.60;;;9.20;99.90;;;;;;5116504;28;20560;-58
2022/06/02 03:50:45;;;;;;;5.50;4.95;;;9.10;99.90;;;;;;5116909;28;20515;-58
2022/06/02 03:53:29;;;;;;;5.10;4.60;;;9.10;99.90;;;;;;5117021;28;20165;-58
2022/06/02 03:56:23;;;;;;;6.55;5.18;;;9.00;99.90;;;;;;5116747;28;20701;-58
2022/06/02 03:59:16;;;;;;;5.03;4.53;;;9.00;99.90;;;;;;5116620;28;20207;-58
2022/06/02 04:01:52;;;;;;;5.25;4.75;;;8.80;99.90;;;;;;5116620;28;20665;-58
2022/06/02 04:04:41;;;;;;;5.57;4.80;;;8.70;99.90;;;;;;5116894;28;20165;-58
2022/06/02 04:07:34;;;;;;;6.35;4.75;;;8.80;99.90;;;;;;5115765;28;20288;-58
2022/06/02 04:10:37;;;;;;;4.60;4.20;;;8.80;99.90;;;;;;5116709;28;20176;-58
2022/06/02 04:13:39;;;;;;;5.75;4.88;;;8.80;99.90;;;;;;5116551;28;20252;-58
2022/06/02 04:16:33;;;;;;;5.25;4.45;;;8.80;99.90;;;;;;5116479;28;20200;-58
2022/06/02 04:22:38;;;;;;;4.97;4.47;;;8.80;99.90;;;;;;5116592;28;20279;-58
2022/06/02 04:25:17;;;;;;;5.70;4.93;;;8.80;99.90;;;;;;5116388;28;20169;-59
2022/06/02 04:28:15;;;;;;;6.45;5.10;;;8.90;99.90;;;;;;5116173;28;20484;-58
2022/06/02 04:31:17;;;;;;;6.55;5.57;;;8.80;99.90;;;;;;5101375;28;20184;-59
2022/06/02 04:34:10;;;;;;;5.22;4.70;;;8.90;99.90;;;;;;5116223;28;20247;-58
2022/06/02 04:36:35;;;;;;;6.57;5.47;;;8.90;99.90;;;;;;5093920;28;20229;-58
2022/06/02 04:39:01;;;;;;;6.45;5.10;;;8.90;99.90;;;;;;5116053;28;20252;-58
2022/06/02 04:42:16;;;;;;;6.38;5.03;;;9.00;99.90;;;;;;5116115;28;20176;-58
2022/06/02 04:44:56;;;;;;;6.32;5.43;;;9.10;99.90;;;;;;5092220;28;20516;-58
2022/06/02 04:47:31;;;;;;;6.38;5.57;;;9.30;99.90;;;;;;5115998;28;20523;-58
2022/06/02 04:50:17;;;;;;;7.18;5.55;;;9.40;99.90;;;;;;5115737;28;20169;-58
2022/06/02 04:52:54;;;;;;;6.13;5.43;;;9.60;99.90;;;;;;5115773;28;20175;-58
2022/06/02 04:55:49;;;;;;;6.75;5.63;;;9.70;99.90;;;;;;5115581;28;20196;-58
2022/06/02 04:58:26;;;;;;;7.00;6.07;;;9.80;99.90;;;;;;5115105;28;20195;-56
2022/06/02 05:01:16;;;;;;;9.15;6.68;;;9.80;99.90;;;;;;5115471;28;20174;-59
2022/06/02 05:04:09;;;;;;;7.03;6.15;;;9.70;99.90;;;;;;5114952;28;20559;-58
2022/06/02 05:06:49;;;;;;;6.82;5.68;;;9.80;99.90;;;;;;5114538;28;20182;-56
2022/06/02 05:09:35;;;;;;;7.00;5.60;;;9.90;99.90;;;;;;5115468;28;20165;-56
2022/06/02 05:12:31;;;;;;;6.03;5.40;;;10.10;99.90;;;;;;5115235;28;20181;-56
2022/06/02 05:15:13;;;;;;;6.95;5.82;;;10.10;99.90;;;;;;5115510;28;20307;-57
2022/06/02 05:17:45;;;;;;;7.47;6.40;;;10.30;99.90;;;;;;5115295;28;20219;-57
2022/06/02 05:20:25;;;;;;;6.70;5.78;;;10.50;99.90;;;;;;5114265;28;20569;-57
2022/06/02 05:23:06;;;;;;;7.30;6.43;;;10.60;99.90;;;;;;5114470;28;20165;-57
2022/06/02 05:26:00;;;;;;;7.38;6.57;;;10.60;99.90;;;;;;5114351;28;20180;-57
2022/06/02 05:28:53;;;;;;;8.02;6.25;;;10.80;99.90;;;;;;5114185;28;20668;-57
2022/06/02 05:31:37;;;;;;;8.70;7.20;;;10.90;99.90;;;;;;5114300;28;20230;-57
2022/06/02 05:34:18;;;;;;;8.23;6.53;;;11.00;99.90;;;;;;5114514;28;20193;-59
2022/06/02 05:36:58;;;;;;;9.10;6.95;;;11.10;99.90;;;;;;5114348;28;20291;-57
2022/06/02 05:40:03;;;;;;;7.85;6.22;;;11.30;99.90;;;;;;5114128;28;20179;-57
2022/06/02 05:42:35;;;;;;;8.30;6.72;;;11.40;99.90;;;;;;5113963;28;20173;-58
2022/06/02 05:45:11;;;;;;;10.93;7.78;;;11.50;99.90;;;;;;5113806;28;20657;-57
2022/06/02 05:47:56;;;;;;;10.55;7.88;;;11.70;99.90;;;;;;5113964;28;20683;-58
2022/06/02 05:50:49;;;;;;;8.98;7.63;;;11.80;99.90;;;;;;5113756;28;20173;-58
2022/06/02 05:53:53;;;;;;;10.85;7.85;;;12.10;99.90;;;;;;5109611;28;20177;-57
2022/06/02 05:56:56;;;;;;;9.88;7.65;;;12.30;99.90;;;;;;5113737;28;20200;-58
2022/06/02 05:59:51;;;;;;;10.00;7.93;;;12.40;99.90;;;;;;5113623;28;20169;-57
2022/06/02 06:02:28;;;;;;;9.80;7.78;;;12.60;99.90;;;;;;5108800;28;20205;-58
2022/06/02 06:05:27;;;;;;;12.00;8.32;;;12.80;99.90;;;;;;5113585;28;20256;-58
2022/06/02 06:08:08;;;;;;;10.13;7.97;;;13.10;99.90;;;;;;5099162;28;20199;-58
2022/06/02 06:11:04;;;;;;;10.88;7.65;;;13.40;99.90;;;;;;5113493;28;20263;-58
2022/06/02 06:13:50;;;;;;;8.40;6.85;;;13.70;99.90;;;;;;5113512;28;20165;-58
2022/06/02 06:16:27;;;;;;;6.40;5.70;;;13.70;99.90;;;;;;5113338;28;20199;-58
2022/06/02 06:19:24;;;;;;;8.00;6.22;;;13.80;99.90;;;;;;5113291;28;20169;-58
2022/06/02 06:21:52;;;;;;;7.13;6.00;;;13.90;99.90;;;;;;5113329;28;20257;-58
2022/06/02 06:24:28;;;;;;;5.80;5.15;;;14.20;99.90;;;;;;5113230;28;20170;-58
2022/06/02 06:27:38;;;;;;;6.70;5.40;;;14.30;99.90;;;;;;5113148;28;20522;-58
2022/06/02 06:30:07;;;;;;;9.50;6.63;;;14.50;99.90;;;;;;5113324;28;20200;-58
2022/06/02 06:32:39;;;;;;;7.80;6.00;;;14.60;99.90;;;;;;5113083;28;20161;-58
2022/06/02 06:35:39;;;;;;;5.60;4.80;;;14.70;99.90;;;;;;5113002;28;20201;-58
2022/06/02 06:38:32;;;;;;;7.47;5.10;;;14.90;99.90;;;;;;5113221;28;20201;-58
2022/06/02 06:41:29;;;;;;;6.45;5.32;;;15.10;99.90;;;;;;5113058;28;20166;-58
2022/06/02 06:44:08;;;;;;;5.72;4.43;;;15.30;99.90;;;;;;5112986;28;20161;-58
2022/06/02 06:46:43;;;;;;;6.22;4.82;;;15.50;99.90;;;;;;5113430;28;20200;-58
2022/06/02 06:49:17;;;;;;;5.05;4.30;;;15.50;99.90;;;;;;5112917;28;20571;-58
2022/06/02 06:52:01;;;;;;;5.57;4.43;;;15.40;99.90;;;;;;5112980;28;20173;-58
2022/06/02 06:54:57;;;;;;;5.60;4.97;;;15.50;99.90;;;;;;5113027;28;20184;-60
2022/06/02 06:57:34;;;;;;;6.72;5.47;;;15.80;99.90;;;;;;5113376;28;20169;-58
2022/06/02 07:00:07;;;;;;;7.20;5.65;;;15.70;99.90;;;;;;5112771;28;20495;-58
2022/06/02 07:03:14;;;;;;;4.50;4.10;;;16.00;99.90;;;;;;5111288;28;20539;-60
2022/06/02 07:06:00;;;;;;;3.10;2.65;;;16.00;99.90;;;;;;5112610;28;20674;-58
2022/06/02 07:08:39;;;;;;;2.85;2.35;;;16.30;99.90;;;;;;5112847;28;20169;-58
2022/06/02 07:14:12;;;;;;;2.88;2.55;;;16.70;99.90;;;;;;5113287;28;20176;-58
2022/06/02 07:16:55;;;;;;;4.78;4.13;;;16.70;99.90;;;;;;5112587;28;20538;-58
2022/06/02 07:19:27;;;;;;;4.15;3.47;;;16.60;99.90;;;;;;5112721;28;20305;-58
2022/06/02 07:22:03;;;;;;;4.88;3.55;;;16.20;99.90;;;;;;5112624;28;20180;-58
2022/06/02 07:24:47;;;;;;;5.53;4.75;;;15.70;99.90;;;;;;5112584;28;20165;-58
2022/06/02 07:27:19;;;;;;;5.25;4.32;;;15.50;99.90;;;;;;5112460;28;20173;-57
2022/06/02 07:30:04;;;;;;;6.40;4.50;;;15.50;99.90;;;;;;5112493;28;20189;-58
2022/06/02 07:32:45;;;;;;;5.78;5.13;;;15.70;99.90;;;;;;5112705;28;20650;-58
2022/06/02 07:35:38;;;;;;;6.15;4.38;;;15.80;99.90;;;;;;5112440;28;20193;-58
2022/06/02 07:38:22;;;;;;;5.70;4.90;;;16.10;99.90;;;;;;5112666;28;20154;-59
2022/06/02 07:41:09;;;;;;;4.55;4.03;;;16.20;99.90;;;;;;5112561;28;20496;-58
2022/06/02 07:43:54;;;;;;;4.88;4.35;;;16.30;99.90;;;;;;5114805;28;20223;-58
2022/06/02 07:46:38;;;;;;;4.13;3.70;;;16.30;99.90;;;;;;5116134;28;20173;-58
2022/06/02 07:49:28;;;;;;;4.10;3.70;;;16.10;99.90;;;;;;5116453;28;20248;-58
2022/06/02 07:52:13;;;;;;;4.32;3.92;;;16.20;99.90;;;;;;5116153;28;20165;-58
2022/06/02 07:55:18;;;;;;;7.80;5.80;;;16.40;99.90;;;;;;5115509;28;20189;-60
2022/06/02 07:57:56;;;;;;;8.43;6.22;;;16.20;99.90;;;;;;5116110;28;20697;-58
2022/06/02 08:00:27;;;;;;;5.38;4.25;;;16.50;99.90;;;;;;5115939;28;20173;-58
2022/06/02 08:03:23;;;;;;;4.25;3.85;;;16.80;99.90;;;;;;5116070;28;20179;-58
2022/06/02 08:06:11;;;;;;;3.83;3.45;;;17.20;99.90;;;;;;5115863;28;20250;-58
2022/06/02 08:09:11;;;;;;;6.00;5.35;;;17.30;99.90;;;;;;5115942;28;20177;-58
2022/06/02 08:11:54;;;;;;;7.13;5.63;;;16.90;99.90;;;;;;5106109;28;20184;-57
2022/06/02 08:14:44;;;;;;;7.30;5.97;;;16.60;99.90;;;;;;5115756;28;20507;-58
2022/06/02 08:17:21;;;;;;;6.35;5.07;;;16.60;99.90;;;;;;5115735;28;20185;-58
2022/06/02 08:20:02;;;;;;;7.13;6.00;;;16.90;99.90;;;;;;5115791;28;20157;-58
2022/06/02 08:22:40;;;;;;;6.40;5.35;;;17.20;99.90;;;;;;5115620;28;20562;-58
2022/06/02 08:25:12;;;;;;;6.75;5.65;;;17.40;99.90;;;;;;5115678;28;20189;-58
2022/06/02 08:28:00;;;;;;;5.80;5.20;;;17.30;99.90;;;;;;5115314;28;20172;-58
2022/06/02 08:30:59;;;;;;;5.85;4.70;;;17.20;99.90;;;;;;5115452;28;20649;-58
2022/06/02 08:34:02;;;;;;;5.38;4.63;;;16.90;99.90;;;;;;5115428;28;20176;-58
2022/06/02 08:36:34;;;;;;;4.47;4.07;;;16.80;99.90;;;;;;5112732;28;20715;-58
2022/06/02 08:39:05;;;;;;;4.30;3.90;;;16.50;99.90;;;;;;5115276;28;20173;-58
2022/06/02 08:41:52;;;;;;;4.13;3.47;;;16.10;99.90;;;;;;5115277;28;20540;-58
2022/06/02 08:44:33;;;;;;;4.50;3.85;;;16.00;99.90;;;;;;5115213;28;20204;-58
2022/06/02 08:47:08;;;;;;;4.22;3.83;;;16.00;99.90;;;;;;5115167;28;20173;-58
2022/06/02 08:50:11;;;;;;;4.20;3.42;;;16.10;99.90;;;;;;5114884;28;20168;-58
2022/06/02 08:53:13;;;;;;;4.70;3.35;;;16.70;99.90;;;;;;5114827;28;20176;-58
2022/06/02 08:55:49;;;;;;;5.07;3.28;;;16.90;99.90;;;;;;5113811;28;20734;-61
2022/06/02 08:58:27;;;;;;;3.90;2.90;;;17.20;99.90;;;;;;5114887;28;20573;-58
2022/06/02 09:01:18;;;;;;;3.30;2.78;;;17.40;99.90;;;;;;5114765;28;20580;-58
2022/06/02 09:04:01;;;;;;;3.05;2.75;;;17.50;99.90;;;;;;5114785;28;20173;-58
2022/06/02 09:06:27;;;;;;;2.92;2.35;;;17.70;99.90;;;;;;5114316;28;20660;-60
2022/06/02 09:09:05;;;;;;;2.35;2.15;;;17.80;99.90;;;;;;5114652;28;20165;-58
2022/06/02 09:11:33;;;;;;;3.17;2.70;;;17.30;99.90;;;;;;5114500;28;20179;-58
2022/06/02 09:14:24;;;;;;;4.32;2.53;;;17.10;99.90;;;;;;5114687;28;20174;-58
2022/06/02 09:17:25;;;;;;;2.65;2.45;;;17.30;99.90;;;;;;5114427;28;20197;-58
2022/06/02 09:20:08;;;;;;;4.15;3.30;;;17.30;99.90;;;;;;5114164;28;20177;-58
2022/06/02 09:22:58;;;;;;;3.58;3.10;;;17.30;99.90;;;;;;5114676;28;20183;-58
2022/06/02 09:25:28;;;;;;;3.10;2.80;;;17.70;99.90;;;;;;5114247;28;20270;-58
2022/06/02 09:27:56;;;;;;;2.35;2.03;;;17.70;99.90;;;;;;5114224;28;20173;-58
2022/06/02 09:30:55;;;;;;;2.33;2.13;;;17.70;99.90;;;;;;5113945;28;20173;-58
2022/06/02 09:33:43;;;;;;;1.95;1.83;;;17.90;99.90;;;;;;5110285;28;20534;-58
2022/06/02 09:36:46;;;;;;;2.95;2.65;;;17.80;99.90;;;;;;5113907;28;20197;-58
2022/06/02 09:39:15;;;;;;;3.03;2.40;;;18.00;99.90;;;;;;5113950;28;20192;-57
2022/06/02 09:42:05;;;;;;;2.50;2.30;;;17.80;99.90;;;;;;5113926;28;20491;-58
2022/06/02 09:45:00;;;;;;;2.78;2.40;;;17.40;99.90;;;;;;5112518;28;20173;-57
2022/06/02 09:47:58;;;;;;;2.53;2.00;;;18.20;99.90;;;;;;5113970;28;20166;-58
2022/06/02 09:50:39;;;;;;;2.65;2.22;;;18.60;99.90;;;;;;5113873;28;20234;-58
2022/06/02 09:53:25;;;;;;;2.88;2.58;;;18.90;99.90;;;;;;5113640;28;20669;-58
2022/06/02 09:56:07;;;;;;;3.03;2.40;;;19.50;99.90;;;;;;5113656;28;20209;-58
2022/06/02 09:58:55;;;;;;;2.10;1.90;;;19.70;99.90;;;;;;5113646;28;20172;-58
2022/06/02 10:01:44;;;;;;;2.15;1.88;;;19.80;99.90;;;;;;5113456;28;20317;-57
2022/06/02 10:04:37;;;;;;;2.38;2.15;;;19.80;99.80;;;;;;5113563;28;20434;-58
2022/06/02 10:07:08;;;;;;;1.63;1.50;;;19.50;99.40;;;;;;5113044;28;20235;-58
2022/06/02 10:09:49;;;;;;;2.45;1.73;;;19.30;99.90;;;;;;5113388;28;20280;-58
2022/06/02 10:15:36;;;;;;;1.73;1.63;;;19.70;99.20;;;;;;5113337;28;20224;-58
2022/06/02 10:18:20;;;;;;;2.28;1.38;;;19.90;99.60;;;;;;5113292;28;20168;-58
2022/06/02 10:21:25;;;;;;;1.50;1.40;;;19.60;99.30;;;;;;5113138;28;20634;-58
2022/06/02 10:24:15;;;;;;;1.98;1.20;;;19.70;97.00;;;;;;5112979;28;20189;-58
2022/06/02 10:27:10;;;;;;;1.88;1.77;;;19.50;98.50;;;;;;5113022;28;20188;-58
2022/06/02 10:29:48;;;;;;;2.25;1.80;;;19.90;98.70;;;;;;5113410;28;20166;-58
2022/06/02 10:32:17;;;;;;;2.10;1.88;;;19.70;98.50;;;;;;5113137;28;20629;-58
2022/06/02 10:34:49;;;;;;;1.80;1.70;;;20.00;98.80;;;;;;5112903;28;20161;-58
2022/06/02 10:37:33;;;;;;;2.35;2.15;;;20.10;99.90;;;;;;5112813;28;20564;-58
2022/06/02 10:40:11;;;;;;;2.55;1.60;;;20.20;99.20;;;;;;5113047;28;20179;-58
2022/06/02 10:43:08;;;;;;;1.42;1.20;;;20.00;96.80;;;;;;5112860;28;20188;-58
2022/06/02 10:45:58;;;;;;;2.38;1.77;;;20.30;98.40;;;;;;5113075;28;20177;-58
2022/06/02 10:48:30;;;;;;;1.08;1.00;;;19.80;96.50;;;;;;5112893;28;20232;-58
2022/06/02 10:51:40;;;;;;;1.25;1.15;;;19.70;97.50;;;;;;5112983;28;20165;-58
2022/06/02 10:54:34;;;;;;;1.30;1.20;;;19.90;98.60;;;;;;5101588;28;20185;-59
2022/06/02 10:57:18;;;;;;;1.20;1.10;;;20.00;97.60;;;;;;5112650;28;20275;-58
2022/06/02 11:00:06;;;;;;;1.20;1.10;;;20.00;97.60;;;;;;5112760;28;20165;-59
2022/06/02 11:02:46;;;;;;;1.67;1.58;;;20.10;97.00;;;;;;5112797;28;20256;-58
2022/06/02 11:05:15;;;;;;;1.33;1.23;;;20.20;97.80;;;;;;5112480;28;20625;-58
2022/06/02 11:08:12;;;;;;;1.58;1.23;;;20.30;98.30;;;;;;5112656;28;20594;-58
2022/06/02 11:11:02;;;;;;;1.40;1.20;;;20.40;98.00;;;;;;5111593;28;20574;-58
2022/06/02 11:13:46;;;;;;;1.00;1.00;;;20.50;98.60;;;;;;5112730;28;20178;-59
2022/06/02 11:16:17;;;;;;;1.90;1.30;;;20.50;97.70;;;;;;5112555;28;20211;-58
2022/06/02 11:19:09;;;;;;;1.50;1.38;;;20.40;97.30;;;;;;5115188;28;20406;-58
2022/06/02 11:22:07;;;;;;;1.65;1.30;;;20.40;95.60;;;;;;5116809;28;20161;-58
2022/06/02 11:24:42;;;;;;;1.30;1.20;;;20.10;95.10;;;;;;5079324;28;20196;-58
2022/06/02 11:27:31;;;;;;;1.33;1.23;;;20.10;96.20;;;;;;5116461;28;20256;-58
2022/06/02 11:30:12;;;;;;;1.83;1.73;;;20.10;95.90;;;;;;5116516;28;20158;-58
2022/06/02 11:32:59;;;;;;;2.25;1.63;;;19.90;94.30;;;;;;5116563;28;20180;-58
2022/06/02 11:36:10;;;;;;;1.38;1.27;;;20.10;96.50;;;;;;5116182;28;20193;-58
2022/06/02 11:38:55;;;;;;;1.05;1.02;;;20.40;95.90;;;;;;5116454;28;20529;-58
2022/06/02 11:41:34;;;;;;;1.40;1.30;;;20.80;95.90;;;;;;5108553;28;20542;-58
2022/06/02 11:44:19;;;;;;;1.92;1.60;;;21.00;96.70;;;;;;5116400;28;20195;-58
2022/06/02 11:47:08;;;;;;;1.70;1.60;;;20.90;96.60;;;;;;5116656;28;20169;-58
2022/06/02 11:49:58;;;;;;;1.67;1.52;;;20.90;96.00;;;;;;5115537;28;20177;-58
2022/06/02 11:52:49;;;;;;;1.52;1.30;;;20.90;96.00;;;;;;5116155;28;20184;-58
2022/06/02 11:55:22;;;;;;;1.40;1.30;;;20.90;95.00;;;;;;5115987;28;20234;-58
2022/06/02 11:58:24;;;;;;;1.70;1.60;;;20.90;95.90;;;;;;5116064;28;20190;-58
2022/06/02 12:01:15;;;;;;;1.70;1.50;;;20.50;94.50;;;;;;5116066;28;20191;-58
2022/06/02 12:03:43;;;;;;;1.65;1.55;;;20.50;95.00;;;;;;5115872;28;20211;-58
2022/06/02 12:06:43;;;;;;;1.60;1.50;;;20.40;96.00;;;;;;5115773;28;20181;-58
2022/06/02 12:09:33;;;;;;;1.95;1.75;;;20.50;95.10;;;;;;5115808;28;20197;-58
2022/06/02 12:12:41;;;;;;;1.80;1.70;;;20.60;95.00;;;;;;5115771;28;20204;-58
2022/06/02 12:15:42;;;;;;;1.73;1.63;;;20.70;95.60;;;;;;5115439;28;20744;-59
2022/06/02 12:18:31;;;;;;;1.75;1.50;;;20.80;95.30;;;;;;5115705;28;20260;-56
2022/06/02 12:21:08;;;;;;;1.23;1.13;;;20.60;94.50;;;;;;5115600;28;20169;-57
2022/06/02 12:23:52;;;;;;;1.40;1.25;;;20.80;96.00;;;;;;5115740;28;20173;-56
2022/06/02 12:26:58;;;;;;;1.50;1.40;;;21.30;95.10;;;;;;5115651;28;20177;-57
2022/06/02 12:29:54;;;;;;;1.70;1.50;;;21.30;95.20;;;;;;5115253;28;20565;-57
2022/06/02 12:32:26;;;;;;;1.73;1.48;;;21.10;93.10;;;;;;5115533;28;20174;-59
2022/06/02 12:35:13;;;;;;;1.55;1.45;;;21.30;93.80;;;;;;5115509;28;20563;-58
2022/06/02 12:38:00;;;;;;;1.45;1.35;;;21.10;93.20;;;;;;5115191;28;20189;-58
2022/06/02 12:40:45;;;;;;;1.80;1.70;;;20.80;92.10;;;;;;5115381;28;20184;-57
2022/06/02 12:43:36;;;;;;;1.80;1.50;;;20.40;93.70;;;;;;5115283;28;20173;-59
2022/06/02 12:46:23;;;;;;;1.60;1.50;;;20.20;94.40;;;;;;5115103;28;20181;-58
2022/06/02 12:49:15;;;;;;;1.50;1.40;;;20.40;95.60;;;;;;5107720;28;20603;-58
2022/06/02 12:52:03;;;;;;;1.38;1.27;;;20.80;94.40;;;;;;5114518;28;20230;-59
2022/06/02 12:55:06;;;;;;;2.20;1.50;;;21.30;94.00;;;;;;5114825;28;20182;-58
2022/06/02 12:57:50;;;;;;;2.30;1.55;;;21.30;92.60;;;;;;5115155;28;20181;-60
2022/06/02 13:00:43;;;;;;;1.60;1.50;;;21.50;94.20;;;;;;5114884;28;20248;-58
2022/06/02 13:03:14;;;;;;;1.42;1.33;;;21.80;94.60;;;;;;5114679;28;20634;-58
2022/06/02 13:05:46;;;;;;;1.38;1.27;;;21.80;92.90;;;;;;5114429;28;20182;-59
2022/06/02 13:08:39;;;;;;;1.40;1.30;;;21.90;93.00;;;;;;5114721;28;20218;-59
2022/06/02 13:11:13;;;;;;;1.85;1.67;;;22.00;92.80;;;;;;5114795;28;20523;-59
2022/06/02 13:14:08;;;;;;;1.45;1.35;;;21.60;91.30;;;;;;5114428;28;20751;-62
2022/06/02 13:16:59;;;;;;;1.48;1.38;;;21.60;93.30;;;;;;5114554;28;20213;-58
2022/06/02 13:20:02;;;;;;;1.67;1.58;;;21.40;91.90;;;;;;5113025;28;20634;-59
2022/06/02 13:22:47;;;;;;;1.90;1.70;;;21.40;93.00;;;;;;5114469;28;20222;-59
2022/06/02 13:25:24;;;;;;;2.20;1.77;;;21.40;91.50;;;;;;5113221;28;20270;-58
2022/06/02 13:28:19;;;;;;;1.58;1.42;;;21.10;91.10;;;;;;5114171;28;20268;-57
2022/06/02 13:30:51;;;;;;;1.52;1.30;;;20.80;90.70;;;;;;5114369;28;20174;-57
2022/06/02 13:33:22;;;;;;;1.20;1.10;;;20.90;91.70;;;;;;5114275;28;20173;-58
2022/06/02 13:36:01;;;;;;;1.70;1.60;;;21.10;92.20;;;;;;5114003;28;20666;-58
2022/06/02 13:38:40;;;;;;;1.55;1.40;;;21.20;91.60;;;;;;5114570;28;20547;-58
2022/06/02 13:41:21;;;;;;;1.05;1.02;;;21.40;90.60;;;;;;5114430;28;20171;-60
2022/06/02 13:43:48;;;;;;;1.30;1.20;;;21.30;90.70;;;;;;5114958;28;20166;-58
2022/06/02 13:46:36;;;;;;;1.58;1.23;;;21.40;91.00;;;;;;5114770;28;20646;-58
2022/06/02 13:49:46;;;;;;;1.17;1.08;;;21.40;89.20;;;;;;5114858;28;20157;-58
2022/06/02 13:52:32;;;;;;;1.10;1.00;;;21.20;91.40;;;;;;5114560;28;20168;-57
2022/06/02 13:58:12;;;;;;;1.50;1.40;;;21.30;90.10;;;;;;5114561;28;20180;-58
2022/06/02 14:00:56;;;;;;;1.40;1.30;;;21.30;90.10;;;;;;5114530;28;20176;-57
2022/06/02 14:03:43;;;;;;;1.40;1.30;;;21.50;90.70;;;;;;5114328;28;20161;-58
2022/06/02 14:06:23;;;;;;;1.30;1.20;;;21.30;90.00;;;;;;5114293;28;20184;-58
2022/06/02 14:09:01;;;;;;;1.33;1.23;;;21.60;91.40;;;;;;5113145;28;20561;-58
2022/06/02 14:11:42;;;;;;;1.48;1.10;;;21.60;90.10;;;;;;5114311;28;20515;-58
2022/06/02 14:14:36;;;;;;;1.40;1.30;;;21.80;91.30;;;;;;5096726;28;20189;-58
2022/06/02 14:17:19;;;;;;;1.20;1.08;;;21.60;90.20;;;;;;5114259;28;20201;-57
2022/06/02 14:20:03;;;;;;;1.10;1.00;;;21.70;90.40;;;;;;5114153;28;20161;-58
2022/06/02 14:22:47;;;;;;;2.35;1.25;;;21.70;90.60;;;;;;5114298;28;20177;-57
2022/06/02 14:25:49;;;;;;;1.60;1.42;;;21.70;90.60;;;;;;5114182;28;20699;-57
2022/06/02 14:28:21;;;;;;;1.30;1.20;;;21.80;91.60;;;;;;5114035;28;20165;-59
2022/06/02 14:31:07;;;;;;;1.48;1.38;;;21.70;90.10;;;;;;5114166;28;20169;-57
2022/06/02 14:33:46;;;;;;;1.20;1.10;;;21.80;90.70;;;;;;5113956;28;20176;-57
2022/06/02 14:36:24;;;;;;;1.15;1.05;;;21.80;90.20;;;;;;5114077;28;20212;-57
2022/06/02 14:39:24;;;;;;;1.20;1.10;;;21.70;89.20;;;;;;5113861;28;20650;-57